createdAt,value
2022-08-21T00:00:00.314Z,99015.69
2022-08-21T00:04:56.520Z,99037.00
2022-08-21T00:09:49.701Z,99023.03
2022-08-21T00:14:41.777Z,99010.16
2022-08-21T00:19:34.599Z,99033.41
2022-08-21T00:24:26.649Z,99030.63
2022-08-21T00:29:19.049Z,99027.91
2022-08-21T00:34:12.130Z,99015.03
2022-08-21T00:39:06.627Z,99018.03
2022-08-21T00:43:58.462Z,99024.88
2022-08-21T00:48:50.132Z,99020.75
2022-08-21T00:53:50.644Z,99021.28
2022-08-21T00:58:46.777Z,99020.69
2022-08-21T01:03:40.906Z,99033.50
2022-08-21T01:08:37.185Z,99031.03
2022-08-21T01:13:37.938Z,99030.19
2022-08-21T01:18:30.608Z,99032.63
2022-08-21T01:23:22.339Z,99026.31
2022-08-21T01:28:15.677Z,99035.63
2022-08-21T01:33:07.569Z,99039.44
2022-08-21T01:37:59.367Z,99043.22
2022-08-21T01:42:51.149Z,99038.03
2022-08-21T01:47:44.286Z,99034.72
2022-08-21T01:52:36.005Z,99034.16
2022-08-21T01:57:27.784Z,99026.22
2022-08-21T02:02:19.456Z,99037.66
2022-08-21T02:07:11.136Z,99044.16
2022-08-21T02:12:03.005Z,99034.91
2022-08-21T02:17:09.592Z,99041.19
2022-08-21T02:22:01.698Z,99038.19
2022-08-21T02:26:53.514Z,99037.63
2022-08-21T02:31:45.505Z,99044.75
2022-08-21T02:36:37.298Z,99033.25
2022-08-21T02:41:29.374Z,99032.19
2022-08-21T02:46:23.278Z,99027.75
2022-08-21T02:51:19.107Z,99024.22
2022-08-21T02:56:13.792Z,99032.66
2022-08-21T03:01:09.018Z,99024.47
2022-08-21T03:06:00.794Z,99013.56
2022-08-21T03:10:54.256Z,99008.09
2022-08-21T03:15:45.945Z,99011.91
2022-08-21T03:20:39.758Z,99009.72
2022-08-21T03:25:39.653Z,99009.19
2022-08-21T03:30:32.310Z,99012.72
2022-08-21T03:35:24.007Z,99004.75
2022-08-21T03:40:17.856Z,99003.97
2022-08-21T03:45:10.096Z,99000.94
2022-08-21T03:50:02.602Z,99005.81
2022-08-21T03:54:54.302Z,99012.38
2022-08-21T03:59:45.961Z,99009.66
2022-08-21T04:04:37.871Z,99018.66
2022-08-21T04:09:31.151Z,99010.72
2022-08-21T04:14:23.547Z,99014.84
2022-08-21T04:19:15.450Z,99020.84
2022-08-21T04:24:09.335Z,99026.84
2022-08-21T04:29:01.694Z,99032.91
2022-08-21T04:33:53.472Z,99037.03
2022-08-21T04:38:45.129Z,99035.44
2022-08-21T04:43:37.116Z,99039.56
2022-08-21T04:48:28.756Z,99037.63
2022-08-21T04:53:25.340Z,99049.63
2022-08-21T04:58:20.212Z,99052.09
2022-08-21T05:03:13.307Z,99049.38
2022-08-21T05:08:06.962Z,99055.16
2022-08-21T05:12:59.111Z,99058.97
2022-08-21T05:17:53.624Z,99056.56
2022-08-21T05:22:53.113Z,99069.97
2022-08-21T05:27:44.765Z,99069.19
2022-08-21T05:32:37.429Z,99056.69
2022-08-21T05:37:29.266Z,99075.00
2022-08-21T05:42:20.910Z,99071.22
2022-08-21T05:47:12.883Z,99077.25
2022-08-21T05:52:05.509Z,99083.84
2022-08-21T05:56:57.718Z,99099.16
2022-08-21T06:01:49.466Z,99096.97
2022-08-21T06:06:41.137Z,99103.22
2022-08-21T06:11:34.041Z,99105.44
2022-08-21T06:16:27.226Z,99105.72
2022-08-21T06:21:19.370Z,99102.19
2022-08-21T06:26:13.776Z,99102.53
2022-08-21T06:31:20.889Z,99099.28
2022-08-21T06:36:13.220Z,99095.50
2022-08-21T06:41:05.491Z,99109.78
2022-08-21T06:45:59.217Z,99101.06
2022-08-21T06:50:50.958Z,99101.34
2022-08-21T06:55:43.337Z,99108.69
2022-08-21T07:00:35.553Z,99116.34
2022-08-21T07:05:29.811Z,99112.53
2022-08-21T07:10:22.212Z,99119.63
2022-08-21T07:15:14.564Z,99122.09
2022-08-21T07:20:07.606Z,99131.75
2022-08-21T07:24:59.764Z,99135.63
2022-08-21T07:29:51.528Z,99142.69
2022-08-21T07:34:43.850Z,99134.50
2022-08-21T07:39:35.503Z,99139.72
2022-08-21T07:44:27.507Z,99137.81
2022-08-21T07:49:19.139Z,99139.22
2022-08-21T07:54:10.749Z,99140.88
2022-08-21T07:59:08.791Z,99151.00
2022-08-21T08:04:00.397Z,99146.63
2022-08-21T08:08:52.033Z,99152.13
2022-08-21T08:13:47.896Z,99158.72
2022-08-21T08:18:39.651Z,99163.34
2022-08-21T08:23:31.675Z,99151.06
2022-08-21T08:28:23.388Z,99157.69
2022-08-21T08:33:15.602Z,99155.81
2022-08-21T08:38:07.361Z,99160.78
2022-08-21T08:42:59.212Z,99158.31
2022-08-21T08:47:58.976Z,99170.88
2022-08-21T08:52:59.816Z,99159.13
2022-08-21T08:57:52.438Z,99175.28
2022-08-21T09:02:45.848Z,99179.69
2022-08-21T09:08:16.660Z,99175.28
2022-08-21T09:13:37.923Z,99175.81
2022-08-21T09:18:45.002Z,99174.47
2022-08-21T09:23:55.377Z,99174.19
2022-08-21T09:28:54.006Z,99185.69
2022-08-21T09:33:45.638Z,99170.91
2022-08-21T09:38:38.954Z,99179.13
2022-08-21T09:43:32.069Z,99184.59
2022-08-21T09:48:26.904Z,99195.00
2022-08-21T09:53:35.419Z,99194.47
2022-08-21T09:58:33.905Z,99201.03
2022-08-21T10:03:25.925Z,99197.47
2022-08-21T10:08:23.263Z,99181.81
2022-08-21T10:13:52.979Z,99195.47
2022-08-21T10:19:17.628Z,99191.28
2022-08-21T10:24:31.530Z,99196.72
2022-08-21T10:29:48.454Z,99204.03
2022-08-21T10:34:49.448Z,99200.72
2022-08-21T10:39:47.968Z,99200.75
2022-08-21T10:44:59.219Z,99203.97
2022-08-21T10:50:09.165Z,99202.28
2022-08-21T10:55:05.166Z,99200.16
2022-08-21T11:00:04.560Z,99201.56
2022-08-21T11:05:14.109Z,99198.44
2022-08-21T11:10:20.699Z,99207.13
2022-08-21T11:15:36.447Z,99206.50
2022-08-21T11:20:44.054Z,99209.25
2022-08-21T11:25:41.153Z,99207.53
2022-08-21T11:30:46.539Z,99204.25
2022-08-21T11:36:05.317Z,99206.47
2022-08-21T11:41:24.485Z,99197.00
2022-08-21T11:47:01.119Z,99189.09
2022-08-21T11:52:03.554Z,99184.19
2022-08-21T11:57:36.202Z,99195.63
2022-08-21T12:02:36.957Z,99188.81
2022-08-21T12:07:40.844Z,99201.78
2022-08-21T12:12:38.485Z,99201.03
2022-08-21T12:17:38.221Z,99204.00
2022-08-21T12:22:41.733Z,99202.59
2022-08-21T12:27:46.654Z,99200.84
2022-08-21T12:32:47.134Z,99197.16
2022-08-21T12:37:53.767Z,99185.53
2022-08-21T12:42:58.603Z,99197.28
2022-08-21T12:48:00.466Z,99195.34
2022-08-21T12:53:27.762Z,99200.56
2022-08-21T12:58:25.334Z,99197.16
2022-08-21T13:03:17.578Z,99203.91
2022-08-21T13:08:12.752Z,99201.03
2022-08-21T13:13:12.413Z,99198.63
2022-08-21T13:18:06.322Z,99196.59
2022-08-21T13:23:01.515Z,99192.38
2022-08-21T13:28:08.181Z,99196.16
2022-08-21T13:33:02.335Z,99191.75
2022-08-21T13:37:56.329Z,99182.97
2022-08-21T13:42:49.424Z,99189.41
2022-08-21T13:47:41.399Z,99182.47
2022-08-21T13:52:33.085Z,99178.19
2022-08-21T13:57:34.051Z,99173.44
2022-08-21T14:02:26.257Z,99163.31
2022-08-21T14:07:22.144Z,99158.19
2022-08-21T14:12:24.818Z,99158.56
2022-08-21T14:17:34.245Z,99149.78
2022-08-21T14:22:39.435Z,99143.88
2022-08-21T14:27:32.103Z,99150.13
2022-08-21T14:32:28.068Z,99144.41
2022-08-21T14:37:20.088Z,99151.75
2022-08-21T14:42:11.740Z,99141.94
2022-08-21T14:47:03.450Z,99148.69
2022-08-21T14:51:58.637Z,99151.06
2022-08-21T14:56:51.484Z,99140.72
2022-08-21T15:01:45.760Z,99146.56
2022-08-21T15:06:38.517Z,99140.72
2022-08-21T15:11:42.139Z,99142.56
2022-08-21T15:16:35.229Z,99146.72
2022-08-21T15:21:27.550Z,99148.22
2022-08-21T15:26:20.029Z,99157.31
2022-08-21T15:31:11.703Z,99139.44
2022-08-21T15:36:03.638Z,99140.94
2022-08-21T15:40:55.411Z,99148.09
2022-08-21T15:45:47.354Z,99145.84
2022-08-21T15:50:39.121Z,99133.53
2022-08-21T15:55:31.445Z,99138.94
2022-08-21T16:00:24.730Z,99137.69
2022-08-21T16:05:19.941Z,99140.28
2022-08-21T16:10:12.362Z,99136.81
2022-08-21T16:15:06.047Z,99133.22
2022-08-21T16:20:00.274Z,99127.88
2022-08-21T16:24:51.976Z,99138.06
2022-08-21T16:29:43.698Z,99131.00
2022-08-21T16:34:35.848Z,99132.56
2022-08-21T16:39:29.215Z,99128.78
2022-08-21T16:44:22.255Z,99132.00
2022-08-21T16:49:14.588Z,99125.56
2022-08-21T16:54:06.703Z,99125.97
2022-08-21T16:58:59.171Z,99129.56
2022-08-21T17:03:51.431Z,99126.41
2022-08-21T17:08:44.493Z,99131.41
2022-08-21T17:13:36.308Z,99126.22
2022-08-21T17:18:28.097Z,99130.00
2022-08-21T17:23:20.550Z,99133.75
2022-08-21T17:28:19.199Z,99137.75
2022-08-21T17:33:11.536Z,99128.88
2022-08-21T17:38:03.222Z,99123.66
2022-08-21T17:42:57.378Z,99126.94
2022-08-21T17:47:50.920Z,99120.50
2022-08-21T17:52:44.593Z,99120.69
2022-08-21T17:57:37.010Z,99119.78
2022-08-21T18:02:30.606Z,99137.25
2022-08-21T18:07:31.726Z,99129.09
2022-08-21T18:12:24.512Z,99132.22
2022-08-21T18:17:20.266Z,99139.78
2022-08-21T18:22:12.325Z,99134.13
2022-08-21T18:27:07.061Z,99141.97
2022-08-21T18:31:58.758Z,99147.59
2022-08-21T18:36:51.502Z,99156.78
2022-08-21T18:41:44.783Z,99148.81
2022-08-21T18:46:36.425Z,99148.81
2022-08-21T18:51:28.114Z,99154.47
2022-08-21T18:56:20.888Z,99167.19
2022-08-21T19:01:13.635Z,99175.78
2022-08-21T19:06:06.044Z,99179.09
2022-08-21T19:11:02.765Z,99191.94
2022-08-21T19:15:56.863Z,99187.03
2022-08-21T19:20:48.505Z,99195.94
2022-08-21T19:25:43.220Z,99197.38
2022-08-21T19:30:37.125Z,99201.72
2022-08-21T19:35:28.811Z,99199.34
2022-08-21T19:40:22.214Z,99206.47
2022-08-21T19:45:14.106Z,99206.31
2022-08-21T19:50:17.849Z,99207.78
2022-08-21T19:55:20.322Z,99209.19
2022-08-21T20:00:17.087Z,99208.66
2022-08-21T20:05:09.818Z,99199.59
2022-08-21T20:10:02.437Z,99203.41
2022-08-21T20:14:54.794Z,99202.56
2022-08-21T20:19:51.304Z,99192.16
2022-08-21T20:24:46.727Z,99192.53
2022-08-21T20:29:39.426Z,99193.38
2022-08-21T20:34:32.432Z,99196.75
2022-08-21T20:39:25.650Z,99186.88
2022-08-21T20:44:17.674Z,99196.56
2022-08-21T20:49:14.133Z,99200.16
2022-08-21T20:54:36.175Z,99202.03
2022-08-21T20:59:34.618Z,99185.84
2022-08-21T21:04:37.701Z,99186.47
2022-08-21T21:09:40.339Z,99175.25
2022-08-21T21:15:01.328Z,99178.59
2022-08-21T21:20:21.575Z,99183.88
2022-08-21T21:25:23.664Z,99181.41
2022-08-21T21:30:22.035Z,99169.94
2022-08-21T21:35:16.774Z,99171.34
2022-08-21T21:40:49.093Z,99169.44
2022-08-21T21:45:53.069Z,99164.22
2022-08-21T21:51:14.440Z,99163.94
2022-08-21T21:56:14.277Z,99166.16
2022-08-21T22:01:14.042Z,99165.34
2022-08-21T22:06:09.262Z,99167.53
2022-08-21T22:11:29.270Z,99168.91
2022-08-21T22:16:21.374Z,99156.03
2022-08-21T22:21:22.415Z,99163.16
2022-08-21T22:26:25.065Z,99157.97
2022-08-21T22:31:25.500Z,99167.03
2022-08-21T22:36:20.614Z,99160.97
2022-08-21T22:41:14.160Z,99164.00
2022-08-21T22:46:10.658Z,99162.06
2022-08-21T22:51:05.761Z,99161.28
2022-08-21T22:56:00.692Z,99166.50
2022-08-21T23:01:00.513Z,99166.22
2022-08-21T23:05:54.293Z,99158.28
2022-08-21T23:10:47.533Z,99165.66
2022-08-21T23:15:48.585Z,99168.13
2022-08-21T23:20:41.760Z,99167.03
2022-08-21T23:26:04.776Z,99166.75
2022-08-21T23:30:59.577Z,99156.88
2022-08-21T23:36:41.981Z,99149.22
2022-08-21T23:41:52.642Z,99137.72
2022-08-21T23:47:05.102Z,99135.81
2022-08-21T23:52:15.202Z,99145.97
2022-08-21T23:57:31.810Z,99148.97
